createdAt,value
2019-01-10T00:04:08.778Z,0.57
2019-01-10T00:09:08.420Z,0.60
2019-01-10T00:14:08.161Z,0.70
2019-01-10T00:19:07.787Z,0.50
2019-01-10T00:24:07.329Z,0.60
2019-01-10T00:29:06.981Z,0.73
2019-01-10T00:34:06.594Z,0.50
2019-01-10T00:39:07.808Z,0.60
2019-01-10T00:44:07.352Z,0.70
2019-01-10T00:49:06.890Z,0.67
2019-01-10T00:54:06.494Z,0.77
2019-01-10T00:59:06.042Z,0.97
2019-01-10T01:04:05.707Z,0.63
2019-01-10T01:09:08.241Z,0.60
2019-01-10T01:14:07.856Z,0.67
2019-01-10T01:19:07.395Z,1.00
2019-01-10T01:24:07.002Z,0.70
2019-01-10T01:29:06.555Z,0.80
2019-01-10T01:34:06.182Z,0.70
2019-01-10T01:39:08.254Z,1.90
2019-01-10T01:44:07.787Z,0.90
2019-01-10T01:49:07.334Z,0.83
2019-01-10T01:54:06.874Z,0.80
2019-01-10T01:59:06.415Z,0.80
2019-01-10T02:04:06.315Z,0.80
2019-01-10T02:09:07.038Z,0.60
2019-01-10T02:14:06.734Z,0.70
2019-01-10T02:19:06.262Z,0.83
2019-01-10T02:24:05.893Z,0.90
2019-01-10T02:29:06.499Z,1.07
2019-01-10T02:34:06.042Z,0.70
2019-01-10T02:39:07.627Z,0.83
2019-01-10T02:44:07.731Z,1.00
2019-01-10T02:49:07.510Z,0.90
2019-01-10T02:54:07.110Z,0.83
2019-01-10T02:59:07.185Z,1.00
2019-01-10T03:04:07.069Z,0.80
2019-01-10T03:09:09.146Z,0.87
2019-01-10T03:14:08.691Z,0.70
2019-01-10T03:19:08.239Z,1.00
2019-01-10T03:24:07.885Z,0.70
2019-01-10T03:29:07.591Z,0.80
2019-01-10T03:34:07.134Z,0.60
2019-01-10T03:39:08.765Z,0.90
2019-01-10T03:44:08.304Z,1.30
2019-01-10T03:49:07.839Z,1.10
2019-01-10T03:54:07.386Z,0.80
2019-01-10T03:59:06.926Z,0.60
2019-01-10T04:04:06.546Z,0.60
2019-01-10T04:09:08.179Z,0.80
2019-01-10T04:14:07.758Z,1.00
2019-01-10T04:19:07.311Z,0.73
2019-01-10T04:24:06.894Z,0.90
2019-01-10T04:29:06.443Z,1.10
2019-01-10T04:34:05.993Z,0.60
2019-01-10T04:39:08.312Z,0.70
2019-01-10T04:44:07.864Z,0.80
2019-01-10T04:49:07.693Z,0.73
2019-01-10T04:54:07.283Z,1.20
2019-01-10T04:59:06.898Z,1.00
2019-01-10T05:04:06.520Z,1.20
2019-01-10T05:09:08.022Z,0.97
2019-01-10T05:14:16.188Z,0.80
2019-01-10T05:19:08.854Z,1.40
2019-01-10T05:24:08.401Z,1.70
2019-01-10T05:29:07.938Z,1.10
2019-01-10T05:34:07.479Z,0.97
2019-01-10T05:39:08.890Z,1.37
2019-01-10T05:44:08.434Z,2.10
2019-01-10T05:49:08.943Z,1.13
2019-01-10T05:54:08.518Z,1.30
2019-01-10T05:59:08.077Z,1.03
2019-01-10T06:04:07.611Z,1.33
2019-01-10T06:09:08.618Z,1.30
2019-01-10T06:14:08.238Z,1.10
2019-01-10T06:19:07.786Z,1.30
2019-01-10T06:24:07.314Z,1.30
2019-01-10T06:29:06.861Z,1.33
2019-01-10T06:34:06.645Z,1.10
2019-01-10T06:39:08.285Z,1.67
2019-01-10T06:44:07.843Z,1.50
2019-01-10T06:49:07.377Z,1.40
2019-01-10T06:54:06.914Z,1.30
2019-01-10T06:59:06.462Z,2.10
2019-01-10T07:04:06.027Z,1.17
2019-01-10T07:09:08.878Z,1.20
2019-01-10T07:14:08.419Z,1.53
2019-01-10T07:19:07.967Z,1.37
2019-01-10T07:24:07.615Z,1.57
2019-01-10T07:29:09.750Z,1.30
2019-01-10T07:34:09.391Z,1.40
2019-01-10T07:39:09.784Z,1.80
2019-01-10T07:44:10.199Z,1.50
2019-01-10T07:49:09.831Z,1.40
2019-01-10T07:54:09.439Z,1.50
2019-01-10T07:59:09.803Z,1.37
2019-01-10T08:04:11.030Z,1.73
2019-01-10T08:09:11.681Z,1.50
2019-01-10T08:14:12.742Z,2.10
2019-01-10T08:19:13.549Z,1.70
2019-01-10T08:24:13.285Z,1.20
2019-01-10T08:29:12.814Z,1.40
2019-01-10T08:34:12.871Z,1.33
2019-01-10T08:39:14.388Z,1.33
2019-01-10T08:44:14.248Z,1.07
2019-01-10T08:49:13.792Z,1.23
2019-01-10T08:54:13.334Z,1.37
2019-01-10T08:59:12.942Z,0.93
2019-01-10T09:04:12.574Z,1.07
2019-01-10T09:09:12.211Z,1.20
2019-01-10T09:14:11.784Z,1.30
2019-01-10T09:19:11.466Z,1.57
2019-01-10T09:24:11.037Z,1.20
2019-01-10T09:29:10.614Z,1.80
2019-01-10T09:34:10.323Z,1.50
2019-01-10T09:39:09.972Z,1.07
2019-01-10T09:44:09.743Z,1.00
2019-01-10T09:49:09.380Z,0.90
2019-01-10T09:54:09.067Z,1.10
2019-01-10T09:59:08.631Z,1.60
2019-01-10T10:04:08.203Z,1.00
2019-01-10T10:09:08.710Z,0.90
2019-01-10T10:14:08.541Z,1.10
2019-01-10T10:19:08.106Z,1.00
2019-01-10T10:24:07.821Z,1.17
2019-01-10T10:29:07.358Z,1.03
2019-01-10T10:34:06.889Z,1.10
2019-01-10T10:39:08.798Z,0.80
2019-01-10T10:44:08.423Z,1.30
2019-01-10T10:49:07.959Z,1.07
2019-01-10T10:54:07.586Z,1.20
2019-01-10T10:59:07.275Z,1.03
2019-01-10T11:04:07.499Z,0.90
2019-01-10T11:09:09.650Z,1.10
2019-01-10T11:14:09.306Z,0.90
2019-01-10T11:19:08.837Z,0.97
2019-01-10T11:24:08.595Z,1.17
2019-01-10T11:29:08.130Z,0.97
2019-01-10T11:34:10.312Z,1.30
2019-01-10T11:39:10.119Z,1.20
2019-01-10T11:44:09.671Z,0.70
2019-01-10T11:49:09.262Z,0.97
2019-01-10T11:54:08.859Z,1.20
2019-01-10T11:59:08.499Z,0.90
2019-01-10T12:04:08.051Z,1.00
2019-01-10T12:09:08.051Z,0.97
2019-01-10T12:14:08.370Z,0.80
2019-01-10T12:19:08.990Z,0.80
2019-01-10T12:24:08.530Z,0.90
2019-01-10T12:29:08.067Z,0.70
2019-01-10T12:34:07.679Z,0.70
2019-01-10T12:39:08.114Z,0.77
2019-01-10T12:44:07.839Z,1.17
2019-01-10T12:49:07.369Z,0.90
2019-01-10T12:54:06.910Z,1.10
2019-01-10T12:59:06.601Z,0.90
2019-01-10T13:04:06.254Z,0.80
2019-01-10T13:09:08.099Z,0.90
2019-01-10T13:14:07.810Z,1.00
2019-01-10T13:19:07.340Z,0.80
2019-01-10T13:24:06.990Z,0.90
2019-01-10T13:29:06.525Z,0.60
2019-01-10T13:34:06.407Z,0.60
2019-01-10T13:39:08.906Z,0.60
2019-01-10T13:44:08.636Z,0.87
2019-01-10T13:49:08.258Z,0.60
2019-01-10T13:54:08.350Z,0.97
2019-01-10T13:59:07.888Z,0.60
2019-01-10T14:04:07.423Z,0.70
2019-01-10T14:09:09.665Z,0.70
2019-01-10T14:14:09.214Z,0.67
2019-01-10T14:19:08.830Z,0.87
2019-01-10T14:24:08.363Z,0.80
2019-01-10T14:29:08.097Z,0.93
2019-01-10T14:34:07.642Z,0.60
2019-01-10T14:39:09.215Z,1.10
2019-01-10T14:44:08.847Z,0.63
2019-01-10T14:49:08.402Z,0.70
2019-01-10T14:54:08.119Z,0.70
2019-01-10T14:59:07.809Z,0.70
2019-01-10T15:04:07.421Z,0.77
2019-01-10T15:09:07.974Z,0.60
2019-01-10T15:14:07.692Z,0.80
2019-01-10T15:19:07.405Z,0.80
2019-01-10T15:24:06.941Z,0.90
2019-01-10T15:29:06.474Z,1.17
2019-01-10T15:34:07.298Z,0.93
2019-01-10T15:39:08.470Z,0.70
2019-01-10T15:44:08.286Z,0.97
2019-01-10T15:49:07.835Z,0.83
2019-01-10T15:54:07.529Z,0.63
2019-01-10T15:59:07.074Z,0.70
2019-01-10T16:04:07.598Z,0.77
2019-01-10T16:09:08.025Z,0.80
2019-01-10T16:14:07.670Z,0.80
2019-01-10T16:19:07.209Z,0.70
2019-01-10T16:24:06.837Z,0.80
2019-01-10T16:29:06.376Z,0.63
2019-01-10T16:34:05.920Z,0.70
2019-01-10T16:39:08.087Z,0.60
2019-01-10T16:44:07.766Z,0.70
2019-01-10T16:49:08.286Z,0.80
2019-01-10T16:54:07.818Z,1.33
2019-01-10T16:59:07.362Z,0.87
2019-01-10T17:04:06.930Z,1.40
2019-01-10T17:09:08.660Z,1.03
2019-01-10T17:14:08.202Z,1.20
2019-01-10T17:19:07.767Z,1.30
2019-01-10T17:24:07.474Z,1.00
2019-01-10T17:29:19.022Z,1.07
2019-01-10T17:34:18.594Z,1.20
2019-01-10T17:39:18.162Z,1.30
2019-01-10T17:44:18.014Z,1.20
2019-01-10T17:49:17.566Z,1.60
2019-01-10T17:54:17.980Z,1.17
2019-01-10T17:59:18.554Z,1.97
2019-01-10T18:04:18.181Z,1.47
2019-01-10T18:09:17.732Z,2.20
2019-01-10T18:14:17.261Z,1.80
2019-01-10T18:19:16.809Z,1.93
2019-01-10T18:24:16.368Z,2.20
2019-01-10T18:29:16.054Z,3.60
2019-01-10T18:34:15.663Z,2.20
2019-01-10T18:39:15.234Z,2.80
2019-01-10T18:44:14.854Z,1.57
2019-01-10T18:49:14.409Z,2.53
2019-01-10T18:54:13.983Z,2.40
2019-01-10T18:59:13.526Z,1.80
2019-01-10T19:04:13.239Z,2.20
2019-01-10T19:09:12.817Z,2.30
2019-01-10T19:14:12.623Z,2.27
2019-01-10T19:19:12.235Z,2.30
2019-01-10T19:24:11.954Z,1.93
2019-01-10T19:29:11.482Z,1.73
2019-01-10T19:34:11.043Z,2.63
2019-01-10T19:39:11.585Z,1.80
2019-01-10T19:44:11.238Z,1.40
2019-01-10T19:49:10.842Z,3.10
2019-01-10T19:54:10.561Z,1.90
2019-01-10T19:59:10.158Z,1.87
2019-01-10T20:04:10.555Z,1.50
2019-01-10T20:09:10.708Z,1.63
2019-01-10T20:14:10.239Z,1.67
2019-01-10T20:19:11.509Z,1.50
2019-01-10T20:24:11.653Z,1.93
2019-01-10T20:29:11.251Z,2.43
2019-01-10T20:34:10.850Z,2.67
2019-01-10T20:39:10.424Z,1.87
2019-01-10T20:44:10.204Z,1.93
2019-01-10T20:49:10.102Z,1.63
2019-01-10T20:54:09.645Z,1.60
2019-01-10T20:59:09.170Z,1.90
2019-01-10T21:04:08.871Z,1.03
2019-01-10T21:09:12.981Z,1.83
2019-01-10T21:14:10.501Z,1.57
2019-01-10T21:19:10.150Z,2.03
2019-01-10T21:24:10.239Z,1.47
2019-01-10T21:29:09.863Z,2.27
2019-01-10T21:34:09.544Z,2.10
2019-01-10T21:39:09.158Z,2.40
2019-01-10T21:44:08.945Z,2.20
2019-01-10T21:49:08.710Z,2.40
2019-01-10T21:54:09.079Z,1.70
2019-01-10T21:59:09.574Z,2.13
2019-01-10T22:04:09.273Z,2.40
2019-01-10T22:09:09.359Z,1.60
2019-01-10T22:14:08.971Z,2.03
2019-01-10T22:19:09.377Z,2.13
2019-01-10T22:24:08.927Z,1.50
2019-01-10T22:29:08.459Z,1.80
2019-01-10T22:34:07.995Z,2.50
2019-01-10T22:39:08.687Z,2.00
2019-01-10T22:44:08.242Z,1.60
2019-01-10T22:49:07.818Z,2.37
2019-01-10T22:54:07.394Z,1.70
2019-01-10T22:59:06.982Z,1.67
2019-01-10T23:04:07.198Z,1.90
2019-01-10T23:09:09.470Z,1.60
2019-01-10T23:14:09.080Z,2.50
2019-01-10T23:19:08.768Z,2.90
2019-01-10T23:24:13.089Z,2.20
2019-01-10T23:29:12.626Z,2.20
2019-01-10T23:34:12.626Z,2.37
2019-01-10T23:39:15.238Z,2.67
2019-01-10T23:44:15.745Z,2.57
2019-01-10T23:49:15.345Z,3.10
2019-01-10T23:54:15.302Z,2.33
2019-01-10T23:59:14.852Z,3.10
